sensor_id;sensor_type;location;lat;lon;timestamp;P1;durP1;ratioP1;P2;durP2;ratioP2
20619;SDS011;10469;42.720;23.252;2023-05-24T00:01:21;11.43;;;6.30;;
20619;SDS011;10469;42.720;23.252;2023-05-24T00:03:53;13.60;;;6.10;;
20619;SDS011;10469;42.720;23.252;2023-05-24T00:08:50;11.55;;;6.40;;
20619;SDS011;10469;42.720;23.252;2023-05-24T00:11:16;9.73;;;6.18;;
20619;SDS011;10469;42.720;23.252;2023-05-24T00:13:41;10.25;;;6.75;;
20619;SDS011;10469;42.720;23.252;2023-05-24T00:16:07;10.93;;;6.60;;
20619;SDS011;10469;42.720;23.252;2023-05-24T00:18:32;9.43;;;6.82;;
20619;SDS011;10469;42.720;23.252;2023-05-24T00:20:58;11.65;;;6.95;;
20619;SDS011;10469;42.720;23.252;2023-05-24T00:23:24;10.30;;;6.45;;
20619;SDS011;10469;42.720;23.252;2023-05-24T00:25:50;11.93;;;6.30;;
20619;SDS011;10469;42.720;23.252;2023-05-24T00:28:16;12.55;;;7.05;;
20619;SDS011;10469;42.720;23.252;2023-05-24T00:30:41;10.77;;;6.80;;
20619;SDS011;10469;42.720;23.252;2023-05-24T00:33:07;12.70;;;7.00;;
20619;SDS011;10469;42.720;23.252;2023-05-24T00:35:33;7.95;;;6.40;;
20619;SDS011;10469;42.720;23.252;2023-05-24T00:37:58;11.52;;;6.68;;
20619;SDS011;10469;42.720;23.252;2023-05-24T00:40:23;11.32;;;6.35;;
20619;SDS011;10469;42.720;23.252;2023-05-24T00:42:49;11.15;;;6.20;;
20619;SDS011;10469;42.720;23.252;2023-05-24T00:45:14;9.75;;;6.20;;
20619;SDS011;10469;42.720;23.252;2023-05-24T00:47:40;10.15;;;7.22;;
20619;SDS011;10469;42.720;23.252;2023-05-24T00:50:06;8.77;;;7.00;;
20619;SDS011;10469;42.720;23.252;2023-05-24T00:52:34;12.73;;;7.32;;
20619;SDS011;10469;42.720;23.252;2023-05-24T00:55:01;12.88;;;6.97;;
20619;SDS011;10469;42.720;23.252;2023-05-24T00:57:27;10.70;;;6.70;;
20619;SDS011;10469;42.720;23.252;2023-05-24T00:59:53;8.60;;;6.65;;
20619;SDS011;10469;42.720;23.252;2023-05-24T01:02:20;11.13;;;6.50;;
20619;SDS011;10469;42.720;23.252;2023-05-24T01:04:46;18.23;;;7.00;;
20619;SDS011;10469;42.720;23.252;2023-05-24T01:18:59;11.48;;;7.10;;
20619;SDS011;10469;42.720;23.252;2023-05-24T01:27:12;8.73;;;6.28;;
20619;SDS011;10469;42.720;23.252;2023-05-24T01:29:39;10.05;;;6.43;;
20619;SDS011;10469;42.720;23.252;2023-05-24T01:32:05;8.10;;;6.45;;
20619;SDS011;10469;42.720;23.252;2023-05-24T01:34:31;8.10;;;6.32;;
20619;SDS011;10469;42.720;23.252;2023-05-24T01:36:56;9.20;;;6.97;;
20619;SDS011;10469;42.720;23.252;2023-05-24T01:39:23;10.82;;;7.00;;
20619;SDS011;10469;42.720;23.252;2023-05-24T01:42:06;17.23;;;7.18;;
20619;SDS011;10469;42.720;23.252;2023-05-24T01:44:39;13.18;;;7.32;;
20619;SDS011;10469;42.720;23.252;2023-05-24T01:47:27;13.30;;;6.70;;
20619;SDS011;10469;42.720;23.252;2023-05-24T01:49:53;11.75;;;6.65;;
20619;SDS011;10469;42.720;23.252;2023-05-24T01:52:26;11.95;;;7.28;;
20619;SDS011;10469;42.720;23.252;2023-05-24T01:54:55;12.13;;;7.63;;
20619;SDS011;10469;42.720;23.252;2023-05-24T01:57:22;8.48;;;6.43;;
20619;SDS011;10469;42.720;23.252;2023-05-24T01:59:50;12.25;;;7.45;;
20619;SDS011;10469;42.720;23.252;2023-05-24T02:02:17;11.00;;;7.35;;
20619;SDS011;10469;42.720;23.252;2023-05-24T02:04:43;11.23;;;7.15;;
20619;SDS011;10469;42.720;23.252;2023-05-24T02:07:09;13.43;;;7.43;;
20619;SDS011;10469;42.720;23.252;2023-05-24T02:09:34;10.23;;;7.75;;
20619;SDS011;10469;42.720;23.252;2023-05-24T02:12:00;9.30;;;7.57;;
20619;SDS011;10469;42.720;23.252;2023-05-24T02:14:26;9.95;;;7.43;;
20619;SDS011;10469;42.720;23.252;2023-05-24T02:16:51;10.50;;;7.20;;
20619;SDS011;10469;42.720;23.252;2023-05-24T02:19:22;8.50;;;7.10;;
20619;SDS011;10469;42.720;23.252;2023-05-24T02:21:48;15.48;;;7.95;;
20619;SDS011;10469;42.720;23.252;2023-05-24T02:24:13;16.33;;;8.93;;
20619;SDS011;10469;42.720;23.252;2023-05-24T02:26:39;12.10;;;9.05;;
20619;SDS011;10469;42.720;23.252;2023-05-24T02:29:04;15.90;;;8.75;;
20619;SDS011;10469;42.720;23.252;2023-05-24T02:31:30;11.32;;;8.80;;
20619;SDS011;10469;42.720;23.252;2023-05-24T02:33:56;18.50;;;10.10;;
20619;SDS011;10469;42.720;23.252;2023-05-24T02:36:22;14.27;;;9.95;;
20619;SDS011;10469;42.720;23.252;2023-05-24T02:38:51;12.60;;;8.80;;
20619;SDS011;10469;42.720;23.252;2023-05-24T02:41:17;12.48;;;8.98;;
20619;SDS011;10469;42.720;23.252;2023-05-24T02:43:43;20.60;;;10.45;;
20619;SDS011;10469;42.720;23.252;2023-05-24T02:46:10;15.00;;;9.57;;
20619;SDS011;10469;42.720;23.252;2023-05-24T02:48:35;13.15;;;9.13;;
20619;SDS011;10469;42.720;23.252;2023-05-24T02:51:01;16.50;;;9.95;;
20619;SDS011;10469;42.720;23.252;2023-05-24T02:53:30;15.27;;;9.45;;
20619;SDS011;10469;42.720;23.252;2023-05-24T02:55:56;15.57;;;8.65;;
20619;SDS011;10469;42.720;23.252;2023-05-24T02:58:22;15.93;;;9.50;;
20619;SDS011;10469;42.720;23.252;2023-05-24T03:00:47;15.15;;;9.20;;
20619;SDS011;10469;42.720;23.252;2023-05-24T03:03:13;11.05;;;8.70;;
20619;SDS011;10469;42.720;23.252;2023-05-24T03:05:39;22.75;;;9.20;;
20619;SDS011;10469;42.720;23.252;2023-05-24T03:08:04;14.95;;;9.10;;
20619;SDS011;10469;42.720;23.252;2023-05-24T03:10:30;15.05;;;9.50;;
20619;SDS011;10469;42.720;23.252;2023-05-24T03:12:56;12.15;;;8.88;;
20619;SDS011;10469;42.720;23.252;2023-05-24T03:15:21;27.60;;;9.23;;
20619;SDS011;10469;42.720;23.252;2023-05-24T03:17:47;14.48;;;9.00;;
20619;SDS011;10469;42.720;23.252;2023-05-24T03:20:12;14.88;;;9.20;;
20619;SDS011;10469;42.720;23.252;2023-05-24T03:22:40;13.15;;;8.73;;
20619;SDS011;10469;42.720;23.252;2023-05-24T03:25:06;32.67;;;9.63;;
20619;SDS011;10469;42.720;23.252;2023-05-24T03:27:32;17.17;;;8.77;;
20619;SDS011;10469;42.720;23.252;2023-05-24T03:29:58;16.27;;;9.70;;
20619;SDS011;10469;42.720;23.252;2023-05-24T03:32:24;18.25;;;9.55;;
20619;SDS011;10469;42.720;23.252;2023-05-24T03:34:49;20.02;;;9.25;;
20619;SDS011;10469;42.720;23.252;2023-05-24T03:37:17;14.07;;;9.65;;
20619;SDS011;10469;42.720;23.252;2023-05-24T03:39:42;27.27;;;11.07;;
20619;SDS011;10469;42.720;23.252;2023-05-24T03:42:08;21.67;;;10.68;;
20619;SDS011;10469;42.720;23.252;2023-05-24T03:44:33;21.23;;;10.68;;
20619;SDS011;10469;42.720;23.252;2023-05-24T03:46:59;24.00;;;11.27;;
20619;SDS011;10469;42.720;23.252;2023-05-24T03:49:25;22.33;;;10.45;;
20619;SDS011;10469;42.720;23.252;2023-05-24T03:51:50;18.70;;;9.10;;
20619;SDS011;10469;42.720;23.252;2023-05-24T03:54:16;14.75;;;9.45;;
20619;SDS011;10469;42.720;23.252;2023-05-24T03:56:42;17.17;;;10.00;;
20619;SDS011;10469;42.720;23.252;2023-05-24T03:59:07;20.67;;;9.48;;
20619;SDS011;10469;42.720;23.252;2023-05-24T04:01:33;22.27;;;9.63;;
20619;SDS011;10469;42.720;23.252;2023-05-24T04:04:00;17.70;;;9.77;;
20619;SDS011;10469;42.720;23.252;2023-05-24T04:06:27;17.00;;;10.13;;
20619;SDS011;10469;42.720;23.252;2023-05-24T04:08:57;13.85;;;9.90;;
20619;SDS011;10469;42.720;23.252;2023-05-24T04:11:23;20.85;;;9.70;;
20619;SDS011;10469;42.720;23.252;2023-05-24T04:13:52;9.23;;;7.97;;
20619;SDS011;10469;42.720;23.252;2023-05-24T04:16:20;11.13;;;8.27;;
20619;SDS011;10469;42.720;23.252;2023-05-24T04:18:48;15.43;;;8.52;;
20619;SDS011;10469;42.720;23.252;2023-05-24T04:21:14;14.30;;;8.32;;
20619;SDS011;10469;42.720;23.252;2023-05-24T04:23:40;17.38;;;8.50;;
20619;SDS011;10469;42.720;23.252;2023-05-24T04:26:06;13.95;;;7.60;;
20619;SDS011;10469;42.720;23.252;2023-05-24T04:28:32;12.38;;;7.70;;
20619;SDS011;10469;42.720;23.252;2023-05-24T04:30:58;12.68;;;7.97;;
20619;SDS011;10469;42.720;23.252;2023-05-24T04:33:24;14.77;;;7.68;;
20619;SDS011;10469;42.720;23.252;2023-05-24T04:35:50;9.70;;;7.28;;
20619;SDS011;10469;42.720;23.252;2023-05-24T04:38:16;18.48;;;7.95;;
20619;SDS011;10469;42.720;23.252;2023-05-24T04:40:43;10.90;;;7.80;;
20619;SDS011;10469;42.720;23.252;2023-05-24T04:43:09;16.30;;;9.45;;
20619;SDS011;10469;42.720;23.252;2023-05-24T04:45:35;16.38;;;8.73;;
20619;SDS011;10469;42.720;23.252;2023-05-24T04:48:02;9.85;;;7.80;;
20619;SDS011;10469;42.720;23.252;2023-05-24T04:50:28;10.82;;;7.90;;
20619;SDS011;10469;42.720;23.252;2023-05-24T04:52:53;11.52;;;7.07;;
20619;SDS011;10469;42.720;23.252;2023-05-24T04:55:20;17.90;;;7.47;;
20619;SDS011;10469;42.720;23.252;2023-05-24T04:57:45;12.45;;;6.63;;
20619;SDS011;10469;42.720;23.252;2023-05-24T05:00:11;17.17;;;6.90;;
20619;SDS011;10469;42.720;23.252;2023-05-24T05:02:37;16.05;;;7.45;;
20619;SDS011;10469;42.720;23.252;2023-05-24T05:05:02;18.35;;;8.63;;
20619;SDS011;10469;42.720;23.252;2023-05-24T05:07:28;24.60;;;9.18;;
20619;SDS011;10469;42.720;23.252;2023-05-24T05:09:54;16.13;;;9.40;;
20619;SDS011;10469;42.720;23.252;2023-05-24T05:12:20;12.15;;;8.90;;
20619;SDS011;10469;42.720;23.252;2023-05-24T05:14:45;15.50;;;8.40;;
20619;SDS011;10469;42.720;23.252;2023-05-24T05:17:11;12.27;;;7.72;;
20619;SDS011;10469;42.720;23.252;2023-05-24T05:19:37;11.10;;;7.35;;
20619;SDS011;10469;42.720;23.252;2023-05-24T05:22:03;14.65;;;8.20;;
20619;SDS011;10469;42.720;23.252;2023-05-24T05:24:28;16.33;;;8.55;;
20619;SDS011;10469;42.720;23.252;2023-05-24T05:26:54;13.23;;;8.25;;
20619;SDS011;10469;42.720;23.252;2023-05-24T05:29:19;15.23;;;8.05;;
20619;SDS011;10469;42.720;23.252;2023-05-24T05:31:45;11.57;;;7.80;;
20619;SDS011;10469;42.720;23.252;2023-05-24T05:34:11;15.07;;;7.65;;
20619;SDS011;10469;42.720;23.252;2023-05-24T05:36:36;10.43;;;7.30;;
20619;SDS011;10469;42.720;23.252;2023-05-24T05:39:07;19.48;;;8.00;;
20619;SDS011;10469;42.720;23.252;2023-05-24T05:41:35;20.67;;;8.10;;
20619;SDS011;10469;42.720;23.252;2023-05-24T05:44:02;12.10;;;7.90;;
20619;SDS011;10469;42.720;23.252;2023-05-24T05:46:27;12.00;;;7.78;;
20619;SDS011;10469;42.720;23.252;2023-05-24T05:48:53;14.43;;;8.00;;
20619;SDS011;10469;42.720;23.252;2023-05-24T05:51:18;16.35;;;8.20;;
20619;SDS011;10469;42.720;23.252;2023-05-24T05:53:44;11.77;;;8.38;;
20619;SDS011;10469;42.720;23.252;2023-05-24T05:56:09;13.00;;;7.53;;
20619;SDS011;10469;42.720;23.252;2023-05-24T05:58:35;11.23;;;7.40;;
20619;SDS011;10469;42.720;23.252;2023-05-24T06:01:02;12.13;;;7.03;;
20619;SDS011;10469;42.720;23.252;2023-05-24T06:03:28;16.80;;;6.95;;
20619;SDS011;10469;42.720;23.252;2023-05-24T06:05:53;12.77;;;7.03;;
20619;SDS011;10469;42.720;23.252;2023-05-24T06:08:19;9.88;;;6.80;;
20619;SDS011;10469;42.720;23.252;2023-05-24T06:10:44;11.55;;;7.10;;
20619;SDS011;10469;42.720;23.252;2023-05-24T06:13:10;16.42;;;8.30;;
20619;SDS011;10469;42.720;23.252;2023-05-24T06:15:35;8.90;;;7.10;;
20619;SDS011;10469;42.720;23.252;2023-05-24T06:18:02;11.30;;;6.38;;
20619;SDS011;10469;42.720;23.252;2023-05-24T06:20:27;10.18;;;6.30;;
20619;SDS011;10469;42.720;23.252;2023-05-24T06:22:53;16.10;;;7.82;;
20619;SDS011;10469;42.720;23.252;2023-05-24T06:25:19;13.63;;;6.60;;
20619;SDS011;10469;42.720;23.252;2023-05-24T06:27:45;19.25;;;7.40;;
20619;SDS011;10469;42.720;23.252;2023-05-24T06:30:11;8.95;;;6.78;;
20619;SDS011;10469;42.720;23.252;2023-05-24T06:32:39;10.13;;;6.60;;
20619;SDS011;10469;42.720;23.252;2023-05-24T06:35:05;13.32;;;6.57;;
20619;SDS011;10469;42.720;23.252;2023-05-24T06:37:31;14.15;;;6.97;;
20619;SDS011;10469;42.720;23.252;2023-05-24T06:39:57;11.38;;;6.82;;
20619;SDS011;10469;42.720;23.252;2023-05-24T06:42:23;16.50;;;6.68;;
20619;SDS011;10469;42.720;23.252;2023-05-24T06:44:48;12.57;;;6.85;;
20619;SDS011;10469;42.720;23.252;2023-05-24T06:47:14;13.82;;;7.20;;
20619;SDS011;10469;42.720;23.252;2023-05-24T06:49:39;9.23;;;7.05;;
20619;SDS011;10469;42.720;23.252;2023-05-24T06:52:06;12.93;;;6.75;;
20619;SDS011;10469;42.720;23.252;2023-05-24T06:54:32;13.98;;;6.57;;
20619;SDS011;10469;42.720;23.252;2023-05-24T06:56:58;14.13;;;6.93;;
20619;SDS011;10469;42.720;23.252;2023-05-24T06:59:24;11.98;;;6.47;;
20619;SDS011;10469;42.720;23.252;2023-05-24T07:01:49;16.15;;;6.78;;
20619;SDS011;10469;42.720;23.252;2023-05-24T07:04:21;17.73;;;6.65;;
20619;SDS011;10469;42.720;23.252;2023-05-24T07:06:48;8.88;;;6.38;;
20619;SDS011;10469;42.720;23.252;2023-05-24T07:09:13;15.23;;;6.85;;
20619;SDS011;10469;42.720;23.252;2023-05-24T07:11:39;8.98;;;6.63;;
20619;SDS011;10469;42.720;23.252;2023-05-24T07:14:05;12.02;;;6.32;;
20619;SDS011;10469;42.720;23.252;2023-05-24T07:16:31;11.63;;;6.47;;
20619;SDS011;10469;42.720;23.252;2023-05-24T07:18:56;12.13;;;6.35;;
20619;SDS011;10469;42.720;23.252;2023-05-24T07:21:22;15.85;;;6.97;;
20619;SDS011;10469;42.720;23.252;2023-05-24T07:23:49;11.55;;;6.45;;
20619;SDS011;10469;42.720;23.252;2023-05-24T07:26:15;18.05;;;5.90;;
20619;SDS011;10469;42.720;23.252;2023-05-24T07:28:41;14.70;;;6.32;;
20619;SDS011;10469;42.720;23.252;2023-05-24T07:31:10;9.63;;;6.18;;
20619;SDS011;10469;42.720;23.252;2023-05-24T07:33:36;18.17;;;6.10;;
20619;SDS011;10469;42.720;23.252;2023-05-24T07:36:04;17.05;;;5.88;;
20619;SDS011;10469;42.720;23.252;2023-05-24T07:38:31;12.73;;;5.72;;
20619;SDS011;10469;42.720;23.252;2023-05-24T07:40:58;15.35;;;6.10;;
20619;SDS011;10469;42.720;23.252;2023-05-24T07:43:24;9.07;;;5.75;;
20619;SDS011;10469;42.720;23.252;2023-05-24T07:45:51;11.25;;;6.32;;
20619;SDS011;10469;42.720;23.252;2023-05-24T07:48:16;9.80;;;5.30;;
20619;SDS011;10469;42.720;23.252;2023-05-24T07:50:42;15.75;;;6.32;;
20619;SDS011;10469;42.720;23.252;2023-05-24T07:53:16;11.95;;;5.72;;
20619;SDS011;10469;42.720;23.252;2023-05-24T07:55:43;12.35;;;5.20;;
20619;SDS011;10469;42.720;23.252;2023-05-24T07:58:09;8.77;;;5.18;;
20619;SDS011;10469;42.720;23.252;2023-05-24T08:00:35;6.43;;;4.78;;
20619;SDS011;10469;42.720;23.252;2023-05-24T08:03:02;13.02;;;5.20;;
20619;SDS011;10469;42.720;23.252;2023-05-24T08:05:29;34.75;;;6.88;;
20619;SDS011;10469;42.720;23.252;2023-05-24T08:07:55;8.55;;;4.95;;
20619;SDS011;10469;42.720;23.252;2023-05-24T08:10:22;12.35;;;4.82;;
20619;SDS011;10469;42.720;23.252;2023-05-24T08:12:47;16.40;;;5.57;;
20619;SDS011;10469;42.720;23.252;2023-05-24T08:15:18;10.15;;;4.75;;
20619;SDS011;10469;42.720;23.252;2023-05-24T08:17:44;11.40;;;4.32;;
20619;SDS011;10469;42.720;23.252;2023-05-24T08:20:10;12.35;;;5.25;;
20619;SDS011;10469;42.720;23.252;2023-05-24T08:22:39;8.98;;;4.47;;
20619;SDS011;10469;42.720;23.252;2023-05-24T08:25:05;11.80;;;4.25;;
20619;SDS011;10469;42.720;23.252;2023-05-24T08:27:32;9.85;;;4.40;;
20619;SDS011;10469;42.720;23.252;2023-05-24T08:29:57;11.10;;;4.22;;
20619;SDS011;10469;42.720;23.252;2023-05-24T08:32:23;11.88;;;4.25;;
20619;SDS011;10469;42.720;23.252;2023-05-24T08:34:48;7.43;;;3.45;;
20619;SDS011;10469;42.720;23.252;2023-05-24T08:37:14;11.07;;;3.88;;
20619;SDS011;10469;42.720;23.252;2023-05-24T08:39:43;4.82;;;3.22;;
20619;SDS011;10469;42.720;23.252;2023-05-24T08:42:09;5.43;;;3.65;;
20619;SDS011;10469;42.720;23.252;2023-05-24T08:44:40;4.88;;;3.00;;
20619;SDS011;10469;42.720;23.252;2023-05-24T08:47:19;11.38;;;3.58;;
20619;SDS011;10469;42.720;23.252;2023-05-24T08:49:46;7.78;;;3.92;;
20619;SDS011;10469;42.720;23.252;2023-05-24T08:52:12;4.55;;;3.05;;
20619;SDS011;10469;42.720;23.252;2023-05-24T08:54:38;6.05;;;3.20;;
20619;SDS011;10469;42.720;23.252;2023-05-24T08:57:04;8.20;;;3.05;;
20619;SDS011;10469;42.720;23.252;2023-05-24T08:59:31;7.65;;;3.00;;
20619;SDS011;10469;42.720;23.252;2023-05-24T09:01:57;4.43;;;3.10;;
20619;SDS011;10469;42.720;23.252;2023-05-24T09:04:23;4.85;;;3.20;;
20619;SDS011;10469;42.720;23.252;2023-05-24T09:06:51;6.60;;;3.60;;
20619;SDS011;10469;42.720;23.252;2023-05-24T09:09:18;7.85;;;3.58;;
20619;SDS011;10469;42.720;23.252;2023-05-24T09:11:46;6.15;;;3.05;;
20619;SDS011;10469;42.720;23.252;2023-05-24T09:14:14;4.53;;;3.65;;
20619;SDS011;10469;42.720;23.252;2023-05-24T09:16:40;4.93;;;3.40;;
20619;SDS011;10469;42.720;23.252;2023-05-24T09:19:07;5.00;;;3.38;;
20619;SDS011;10469;42.720;23.252;2023-05-24T09:21:33;10.05;;;3.10;;
20619;SDS011;10469;42.720;23.252;2023-05-24T09:23:59;8.88;;;3.20;;
20619;SDS011;10469;42.720;23.252;2023-05-24T09:26:26;7.45;;;3.00;;
20619;SDS011;10469;42.720;23.252;2023-05-24T09:28:54;7.15;;;3.40;;
20619;SDS011;10469;42.720;23.252;2023-05-24T09:31:42;4.32;;;3.10;;
20619;SDS011;10469;42.720;23.252;2023-05-24T09:34:12;5.85;;;2.83;;
20619;SDS011;10469;42.720;23.252;2023-05-24T09:39:07;4.22;;;3.10;;
20619;SDS011;10469;42.720;23.252;2023-05-24T09:41:34;4.18;;;2.65;;
20619;SDS011;10469;42.720;23.252;2023-05-24T09:44:01;3.40;;;2.90;;
20619;SDS011;10469;42.720;23.252;2023-05-24T09:46:27;6.68;;;3.08;;
20619;SDS011;10469;42.720;23.252;2023-05-24T09:48:58;4.60;;;3.40;;
20619;SDS011;10469;42.720;23.252;2023-05-24T09:51:24;6.10;;;3.40;;
20619;SDS011;10469;42.720;23.252;2023-05-24T09:53:50;8.05;;;3.30;;
20619;SDS011;10469;42.720;23.252;2023-05-24T09:56:21;6.55;;;3.03;;
20619;SDS011;10469;42.720;23.252;2023-05-24T09:58:47;4.13;;;3.58;;
20619;SDS011;10469;42.720;23.252;2023-05-24T10:01:14;6.88;;;3.65;;
20619;SDS011;10469;42.720;23.252;2023-05-24T10:03:51;7.18;;;3.20;;
20619;SDS011;10469;42.720;23.252;2023-05-24T10:06:21;5.75;;;3.00;;
20619;SDS011;10469;42.720;23.252;2023-05-24T10:08:47;6.88;;;3.10;;
20619;SDS011;10469;42.720;23.252;2023-05-24T10:11:14;6.32;;;3.05;;
20619;SDS011;10469;42.720;23.252;2023-05-24T10:13:40;4.15;;;3.35;;
20619;SDS011;10469;42.720;23.252;2023-05-24T10:16:06;3.05;;;2.67;;
20619;SDS011;10469;42.720;23.252;2023-05-24T10:18:32;5.32;;;2.95;;
20619;SDS011;10469;42.720;23.252;2023-05-24T10:20:58;6.80;;;2.90;;
20619;SDS011;10469;42.720;23.252;2023-05-24T10:23:30;5.00;;;2.85;;
20619;SDS011;10469;42.720;23.252;2023-05-24T10:26:07;5.47;;;3.00;;
20619;SDS011;10469;42.720;23.252;2023-05-24T10:28:50;7.20;;;3.47;;
20619;SDS011;10469;42.720;23.252;2023-05-24T10:31:37;6.80;;;3.20;;
20619;SDS011;10469;42.720;23.252;2023-05-24T10:34:05;4.95;;;2.70;;
20619;SDS011;10469;42.720;23.252;2023-05-24T10:36:31;5.78;;;3.20;;
20619;SDS011;10469;42.720;23.252;2023-05-24T10:38:58;6.40;;;2.90;;
20619;SDS011;10469;42.720;23.252;2023-05-24T10:41:27;5.63;;;2.90;;
20619;SDS011;10469;42.720;23.252;2023-05-24T10:43:53;4.72;;;2.80;;
20619;SDS011;10469;42.720;23.252;2023-05-24T10:46:19;4.45;;;3.10;;
20619;SDS011;10469;42.720;23.252;2023-05-24T10:48:57;4.20;;;2.70;;
20619;SDS011;10469;42.720;23.252;2023-05-24T10:56:42;8.75;;;3.92;;
20619;SDS011;10469;42.720;23.252;2023-05-24T10:59:20;7.22;;;3.20;;
20619;SDS011;10469;42.720;23.252;2023-05-24T11:01:46;4.13;;;3.35;;
20619;SDS011;10469;42.720;23.252;2023-05-24T11:04:20;8.40;;;3.05;;
20619;SDS011;10469;42.720;23.252;2023-05-24T11:06:52;5.05;;;2.83;;
20619;SDS011;10469;42.720;23.252;2023-05-24T11:09:19;4.45;;;3.20;;
20619;SDS011;10469;42.720;23.252;2023-05-24T11:11:46;3.38;;;3.08;;
20619;SDS011;10469;42.720;23.252;2023-05-24T11:14:17;4.45;;;3.28;;
20619;SDS011;10469;42.720;23.252;2023-05-24T11:16:44;4.05;;;3.08;;
20619;SDS011;10469;42.720;23.252;2023-05-24T11:19:32;6.05;;;2.95;;
20619;SDS011;10469;42.720;23.252;2023-05-24T11:22:01;8.57;;;3.15;;
20619;SDS011;10469;42.720;23.252;2023-05-24T11:24:30;4.65;;;2.90;;
20619;SDS011;10469;42.720;23.252;2023-05-24T11:26:57;5.95;;;2.97;;
20619;SDS011;10469;42.720;23.252;2023-05-24T11:29:24;3.92;;;3.20;;
20619;SDS011;10469;42.720;23.252;2023-05-24T11:31:53;4.78;;;3.30;;
20619;SDS011;10469;42.720;23.252;2023-05-24T11:34:28;6.22;;;3.42;;
20619;SDS011;10469;42.720;23.252;2023-05-24T11:36:53;5.55;;;3.13;;
20619;SDS011;10469;42.720;23.252;2023-05-24T11:39:19;5.03;;;3.28;;
20619;SDS011;10469;42.720;23.252;2023-05-24T11:41:46;5.13;;;3.45;;
20619;SDS011;10469;42.720;23.252;2023-05-24T11:44:15;7.10;;;3.85;;
20619;SDS011;10469;42.720;23.252;2023-05-24T11:46:42;5.30;;;3.40;;
20619;SDS011;10469;42.720;23.252;2023-05-24T11:49:11;8.60;;;3.58;;
20619;SDS011;10469;42.720;23.252;2023-05-24T11:51:40;4.43;;;3.85;;
20619;SDS011;10469;42.720;23.252;2023-05-24T11:54:05;8.88;;;3.65;;
20619;SDS011;10469;42.720;23.252;2023-05-24T11:56:31;4.53;;;3.30;;
20619;SDS011;10469;42.720;23.252;2023-05-24T12:01:46;5.25;;;3.05;;
20619;SDS011;10469;42.720;23.252;2023-05-24T12:04:11;4.63;;;3.00;;
20619;SDS011;10469;42.720;23.252;2023-05-24T12:06:42;4.60;;;3.60;;
20619;SDS011;10469;42.720;23.252;2023-05-24T12:09:09;4.57;;;3.53;;
20619;SDS011;10469;42.720;23.252;2023-05-24T12:11:40;9.93;;;4.00;;
20619;SDS011;10469;42.720;23.252;2023-05-24T12:14:14;10.38;;;3.60;;
20619;SDS011;10469;42.720;23.252;2023-05-24T12:19:07;5.47;;;3.28;;
20619;SDS011;10469;42.720;23.252;2023-05-24T12:21:39;5.47;;;3.25;;
20619;SDS011;10469;42.720;23.252;2023-05-24T12:24:12;6.53;;;3.38;;
20619;SDS011;10469;42.720;23.252;2023-05-24T12:26:42;3.50;;;3.00;;
20619;SDS011;10469;42.720;23.252;2023-05-24T12:29:09;3.80;;;2.90;;
20619;SDS011;10469;42.720;23.252;2023-05-24T12:31:36;6.57;;;3.35;;
20619;SDS011;10469;42.720;23.252;2023-05-24T12:34:03;3.70;;;3.28;;
20619;SDS011;10469;42.720;23.252;2023-05-24T12:36:31;4.68;;;2.78;;
20619;SDS011;10469;42.720;23.252;2023-05-24T12:38:57;4.30;;;2.92;;
20619;SDS011;10469;42.720;23.252;2023-05-24T12:41:23;7.93;;;3.20;;
20619;SDS011;10469;42.720;23.252;2023-05-24T12:43:50;10.95;;;3.88;;
20619;SDS011;10469;42.720;23.252;2023-05-24T12:46:16;7.43;;;3.50;;
20619;SDS011;10469;42.720;23.252;2023-05-24T12:48:42;5.35;;;3.30;;
20619;SDS011;10469;42.720;23.252;2023-05-24T12:51:08;5.95;;;3.35;;
20619;SDS011;10469;42.720;23.252;2023-05-24T12:53:33;6.85;;;3.45;;
20619;SDS011;10469;42.720;23.252;2023-05-24T12:55:59;6.68;;;3.78;;
20619;SDS011;10469;42.720;23.252;2023-05-24T12:58:25;6.70;;;3.35;;
20619;SDS011;10469;42.720;23.252;2023-05-24T13:00:51;7.70;;;3.33;;
20619;SDS011;10469;42.720;23.252;2023-05-24T13:03:16;7.07;;;3.35;;
20619;SDS011;10469;42.720;23.252;2023-05-24T13:05:42;3.47;;;3.17;;
20619;SDS011;10469;42.720;23.252;2023-05-24T13:08:08;9.35;;;4.10;;
20619;SDS011;10469;42.720;23.252;2023-05-24T13:10:33;5.65;;;3.50;;
20619;SDS011;10469;42.720;23.252;2023-05-24T13:12:59;8.82;;;3.72;;
20619;SDS011;10469;42.720;23.252;2023-05-24T13:15:24;6.07;;;3.15;;
20619;SDS011;10469;42.720;23.252;2023-05-24T13:17:51;7.55;;;3.58;;
20619;SDS011;10469;42.720;23.252;2023-05-24T13:20:17;9.02;;;4.00;;
20619;SDS011;10469;42.720;23.252;2023-05-24T13:22:46;7.47;;;3.22;;
20619;SDS011;10469;42.720;23.252;2023-05-24T13:25:12;5.45;;;3.45;;
20619;SDS011;10469;42.720;23.252;2023-05-24T13:27:37;6.35;;;3.50;;
20619;SDS011;10469;42.720;23.252;2023-05-24T13:30:03;4.70;;;3.47;;
20619;SDS011;10469;42.720;23.252;2023-05-24T13:32:29;6.65;;;3.60;;
20619;SDS011;10469;42.720;23.252;2023-05-24T13:34:55;3.85;;;3.45;;
20619;SDS011;10469;42.720;23.252;2023-05-24T13:37:22;11.10;;;3.90;;
20619;SDS011;10469;42.720;23.252;2023-05-24T13:39:47;6.95;;;3.42;;
20619;SDS011;10469;42.720;23.252;2023-05-24T13:42:14;7.85;;;3.70;;
20619;SDS011;10469;42.720;23.252;2023-05-24T13:44:40;5.53;;;3.35;;
20619;SDS011;10469;42.720;23.252;2023-05-24T13:47:05;9.68;;;3.60;;
20619;SDS011;10469;42.720;23.252;2023-05-24T13:49:32;8.82;;;3.88;;
20619;SDS011;10469;42.720;23.252;2023-05-24T13:51:58;6.88;;;3.58;;
20619;SDS011;10469;42.720;23.252;2023-05-24T13:54:23;6.85;;;3.65;;
20619;SDS011;10469;42.720;23.252;2023-05-24T13:56:50;6.22;;;3.25;;
20619;SDS011;10469;42.720;23.252;2023-05-24T13:59:15;9.65;;;3.42;;
20619;SDS011;10469;42.720;23.252;2023-05-24T14:01:41;8.82;;;3.72;;
20619;SDS011;10469;42.720;23.252;2023-05-24T14:04:07;8.40;;;3.70;;
20619;SDS011;10469;42.720;23.252;2023-05-24T14:06:33;5.47;;;3.60;;
20619;SDS011;10469;42.720;23.252;2023-05-24T14:09:02;7.28;;;3.70;;
20619;SDS011;10469;42.720;23.252;2023-05-24T14:11:30;6.40;;;4.28;;
20619;SDS011;10469;42.720;23.252;2023-05-24T14:13:56;5.95;;;3.83;;
20619;SDS011;10469;42.720;23.252;2023-05-24T14:16:22;6.63;;;4.57;;
20619;SDS011;10469;42.720;23.252;2023-05-24T14:18:48;6.57;;;4.60;;
20619;SDS011;10469;42.720;23.252;2023-05-24T14:21:16;9.02;;;4.75;;
20619;SDS011;10469;42.720;23.252;2023-05-24T14:23:42;10.13;;;4.65;;
20619;SDS011;10469;42.720;23.252;2023-05-24T14:26:08;8.85;;;4.15;;
20619;SDS011;10469;42.720;23.252;2023-05-24T14:28:33;5.57;;;4.07;;
20619;SDS011;10469;42.720;23.252;2023-05-24T14:30:59;6.38;;;4.25;;
20619;SDS011;10469;42.720;23.252;2023-05-24T14:33:24;9.27;;;3.85;;
20619;SDS011;10469;42.720;23.252;2023-05-24T14:35:50;8.70;;;4.03;;
20619;SDS011;10469;42.720;23.252;2023-05-24T14:38:15;21.23;;;5.85;;
20619;SDS011;10469;42.720;23.252;2023-05-24T14:40:41;9.80;;;5.70;;
20619;SDS011;10469;42.720;23.252;2023-05-24T14:43:11;14.82;;;5.05;;
20619;SDS011;10469;42.720;23.252;2023-05-24T14:45:37;10.43;;;5.00;;
20619;SDS011;10469;42.720;23.252;2023-05-24T14:48:04;11.48;;;6.18;;
20619;SDS011;10469;42.720;23.252;2023-05-24T14:50:29;9.70;;;4.70;;
20619;SDS011;10469;42.720;23.252;2023-05-24T14:52:55;6.28;;;3.88;;
20619;SDS011;10469;42.720;23.252;2023-05-24T14:55:20;9.43;;;4.30;;
20619;SDS011;10469;42.720;23.252;2023-05-24T14:57:46;16.70;;;4.78;;
20619;SDS011;10469;42.720;23.252;2023-05-24T15:00:13;8.68;;;3.75;;